createdAt,value
2023-05-09T00:01:46.781Z,6.57
2023-05-09T00:04:50.093Z,6.90
2023-05-09T00:07:52.134Z,7.00
2023-05-09T00:10:53.925Z,7.35
2023-05-09T00:13:55.532Z,6.72
2023-05-09T00:16:59.254Z,6.63
2023-05-09T00:20:10.682Z,8.40
2023-05-09T00:23:12.361Z,6.40
2023-05-09T00:26:14.151Z,5.45
2023-05-09T00:29:18.308Z,6.43
2023-05-09T00:32:20.539Z,6.78
2023-05-09T00:35:24.101Z,5.95
2023-05-09T00:38:26.114Z,7.55
2023-05-09T00:41:28.155Z,5.68
2023-05-09T00:44:30.042Z,5.45
2023-05-09T00:47:32.139Z,6.15
2023-05-09T00:50:36.270Z,7.50
2023-05-09T00:53:38.685Z,6.53
2023-05-09T00:56:41.033Z,6.65
2023-05-09T00:59:42.926Z,10.52
2023-05-09T01:02:48.248Z,8.32
2023-05-09T01:05:58.339Z,7.15
2023-05-09T01:09:05.983Z,6.13
2023-05-09T01:12:16.477Z,7.35
2023-05-09T01:15:25.161Z,10.40
2023-05-09T01:18:33.382Z,6.25
2023-05-09T01:21:43.419Z,5.80
2023-05-09T01:25:08.158Z,7.40
2023-05-09T01:28:14.424Z,8.60
2023-05-09T01:31:18.866Z,8.15
2023-05-09T01:34:25.632Z,6.95
2023-05-09T01:37:31.831Z,6.72
2023-05-09T01:40:35.894Z,8.57
2023-05-09T01:43:39.524Z,6.45
2023-05-09T01:46:44.241Z,7.35
2023-05-09T01:49:48.028Z,8.10
2023-05-09T01:52:54.925Z,9.20
2023-05-09T01:55:58.279Z,8.02
2023-05-09T01:59:02.433Z,10.35
2023-05-09T02:02:07.637Z,9.07
2023-05-09T02:05:12.052Z,9.70
2023-05-09T02:11:17.093Z,9.93
2023-05-09T02:14:18.986Z,10.27
2023-05-09T02:17:22.132Z,8.75
2023-05-09T02:20:24.005Z,10.25
2023-05-09T02:23:26.001Z,10.90
2023-05-09T02:26:28.943Z,10.55
2023-05-09T02:29:40.243Z,10.45
2023-05-09T02:32:45.627Z,9.35
2023-05-09T02:35:48.749Z,10.63
2023-05-09T02:38:50.858Z,10.10
2023-05-09T02:41:52.710Z,9.68
2023-05-09T02:44:55.399Z,7.68
2023-05-09T02:47:59.285Z,6.22
2023-05-09T02:51:01.390Z,10.30
2023-05-09T02:54:03.652Z,8.25
2023-05-09T02:57:05.860Z,7.25
2023-05-09T03:00:12.034Z,8.20
2023-05-09T03:03:17.916Z,8.77
2023-05-09T03:06:20.231Z,10.05
2023-05-09T03:09:22.067Z,11.90
2023-05-09T03:12:24.157Z,8.27
2023-05-09T03:18:32.126Z,10.60
2023-05-09T03:21:34.296Z,7.13
2023-05-09T03:24:36.433Z,9.10
2023-05-09T03:27:38.189Z,7.53
2023-05-09T03:30:43.037Z,8.25
2023-05-09T03:33:49.428Z,8.27
2023-05-09T03:36:51.497Z,13.73
2023-05-09T03:39:53.316Z,7.13
2023-05-09T03:42:55.138Z,9.77
2023-05-09T03:45:56.826Z,10.13
2023-05-09T03:49:02.410Z,10.35
2023-05-09T03:52:05.624Z,8.75
2023-05-09T03:55:09.443Z,13.43
2023-05-09T03:58:12.419Z,8.63
2023-05-09T04:01:17.007Z,9.43
2023-05-09T04:04:21.127Z,10.07
2023-05-09T04:07:23.063Z,10.60
2023-05-09T04:10:25.612Z,13.02
2023-05-09T04:13:30.030Z,7.35
2023-05-09T04:16:34.081Z,10.82
2023-05-09T04:19:37.608Z,8.68
2023-05-09T04:22:39.341Z,9.00
2023-05-09T04:25:41.156Z,10.02
2023-05-09T04:28:45.912Z,7.97
2023-05-09T04:31:50.217Z,12.90
2023-05-09T04:34:54.731Z,12.80
2023-05-09T04:38:00.797Z,11.05
2023-05-09T04:41:02.986Z,9.35
2023-05-09T04:44:05.374Z,9.85
2023-05-09T04:47:07.450Z,8.80
2023-05-09T04:50:11.797Z,9.90
2023-05-09T04:53:13.512Z,8.50
2023-05-09T04:56:16.527Z,9.50
2023-05-09T04:59:20.683Z,9.27
2023-05-09T05:02:22.730Z,9.35
2023-05-09T05:05:28.024Z,8.60
2023-05-09T05:08:30.024Z,10.30
2023-05-09T05:11:31.926Z,8.25
2023-05-09T05:14:34.297Z,8.85
2023-05-09T05:17:39.576Z,10.48
2023-05-09T05:20:44.637Z,15.63
2023-05-09T05:23:46.612Z,12.35
2023-05-09T05:26:49.869Z,10.93
2023-05-09T05:29:51.751Z,11.10
2023-05-09T05:32:53.636Z,9.88
2023-05-09T05:35:57.967Z,9.82
2023-05-09T05:38:59.862Z,7.35
2023-05-09T05:42:01.950Z,9.45
2023-05-09T05:45:06.992Z,8.57
2023-05-09T05:48:13.403Z,14.98
2023-05-09T05:51:16.620Z,12.57
2023-05-09T05:54:19.109Z,9.05
2023-05-09T05:57:21.888Z,10.60
2023-05-09T06:00:24.002Z,11.07
2023-05-09T06:03:33.163Z,12.10
2023-05-09T06:06:40.579Z,9.90
2023-05-09T06:09:42.389Z,10.85
2023-05-09T06:12:45.071Z,11.63
2023-05-09T06:15:47.237Z,10.90
2023-05-09T06:18:49.084Z,11.93
2023-05-09T06:21:52.744Z,11.35
2023-05-09T06:24:54.679Z,9.80
2023-05-09T06:27:56.797Z,13.18
2023-05-09T06:30:59.048Z,12.15
2023-05-09T06:34:01.004Z,11.70
2023-05-09T06:37:04.296Z,10.55
2023-05-09T06:40:07.490Z,10.15
2023-05-09T06:43:09.482Z,10.93
2023-05-09T06:46:11.277Z,12.20
2023-05-09T06:49:14.286Z,9.98
2023-05-09T06:52:17.407Z,12.05
2023-05-09T06:55:19.271Z,13.00
2023-05-09T06:58:21.115Z,10.13
2023-05-09T07:01:23.053Z,9.48
2023-05-09T07:04:25.104Z,10.20
2023-05-09T07:07:28.302Z,10.93
2023-05-09T07:10:30.304Z,11.38
2023-05-09T07:13:31.950Z,12.75
2023-05-09T07:16:36.644Z,9.38
2023-05-09T07:19:39.270Z,12.60
2023-05-09T07:22:42.405Z,12.20
2023-05-09T07:25:45.200Z,10.23
2023-05-09T07:28:47.242Z,12.48
2023-05-09T07:31:49.214Z,12.07
2023-05-09T07:34:50.949Z,11.35
2023-05-09T07:37:54.329Z,12.65
2023-05-09T07:40:56.288Z,11.35
2023-05-09T07:43:58.283Z,11.20
2023-05-09T07:47:01.498Z,12.63
2023-05-09T07:50:03.424Z,15.52
2023-05-09T07:53:07.026Z,12.07
2023-05-09T07:56:08.755Z,15.20
2023-05-09T07:59:10.650Z,14.65
2023-05-09T08:02:12.488Z,12.93
2023-05-09T08:05:14.593Z,13.50
2023-05-09T08:08:17.704Z,12.32
2023-05-09T08:11:19.475Z,16.35
2023-05-09T08:14:21.280Z,14.07
2023-05-09T08:17:23.158Z,13.68
2023-05-09T08:20:25.880Z,12.88
2023-05-09T08:23:30.313Z,15.38
2023-05-09T08:26:32.207Z,13.52
2023-05-09T08:29:33.916Z,13.60
2023-05-09T08:32:36.334Z,11.98
2023-05-09T08:35:38.204Z,13.05
2023-05-09T08:38:41.411Z,15.10
2023-05-09T08:41:43.646Z,12.38
2023-05-09T08:44:45.543Z,10.57
2023-05-09T08:47:47.556Z,11.20
2023-05-09T08:50:49.822Z,10.25
2023-05-09T08:53:54.578Z,11.68
2023-05-09T08:56:57.905Z,11.77
2023-05-09T09:00:01.223Z,13.50
2023-05-09T09:03:04.126Z,11.30
2023-05-09T09:06:08.412Z,11.55
2023-05-09T09:09:12.938Z,13.88
2023-05-09T09:12:16.632Z,8.60
2023-05-09T09:15:22.150Z,10.25
2023-05-09T09:18:30.221Z,8.35
2023-05-09T09:21:33.151Z,12.20
2023-05-09T09:24:36.474Z,9.77
2023-05-09T09:27:38.451Z,9.15
2023-05-09T09:30:44.504Z,10.68
2023-05-09T09:33:46.436Z,8.70
2023-05-09T09:36:51.515Z,8.68
2023-05-09T09:39:56.179Z,9.93
2023-05-09T09:42:58.166Z,11.90
2023-05-09T09:46:04.107Z,10.50
2023-05-09T09:49:05.986Z,12.07
2023-05-09T09:52:07.803Z,10.15
2023-05-09T09:55:11.189Z,12.10
2023-05-09T09:58:16.995Z,9.50
2023-05-09T10:01:20.846Z,7.65
2023-05-09T10:04:23.345Z,8.57
2023-05-09T10:07:25.497Z,7.90
2023-05-09T10:10:32.588Z,8.55
2023-05-09T10:13:36.359Z,8.38
2023-05-09T10:16:43.935Z,7.22
2023-05-09T10:19:49.233Z,8.30
2023-05-09T10:22:57.088Z,7.85
2023-05-09T10:26:10.311Z,8.65
2023-05-09T10:29:13.558Z,8.13
2023-05-09T10:32:23.235Z,6.90
2023-05-09T10:35:32.371Z,6.28
2023-05-09T10:38:35.978Z,5.80
2023-05-09T10:41:40.253Z,8.85
2023-05-09T10:44:42.470Z,8.23
2023-05-09T10:47:45.371Z,7.75
2023-05-09T10:50:47.827Z,6.13
2023-05-09T10:53:51.130Z,8.57
2023-05-09T10:56:54.492Z,6.80
2023-05-09T10:59:57.566Z,6.43
2023-05-09T11:03:06.787Z,6.40
2023-05-09T11:06:08.967Z,4.63
2023-05-09T11:09:38.689Z,4.13
2023-05-09T11:12:57.697Z,5.00
2023-05-09T11:16:09.754Z,7.55
2023-05-09T11:19:11.711Z,4.55
2023-05-09T11:22:15.077Z,4.70
2023-05-09T11:25:17.977Z,6.57
2023-05-09T11:28:29.008Z,5.95
2023-05-09T11:31:31.030Z,3.58
2023-05-09T11:34:33.656Z,4.43
2023-05-09T11:37:39.730Z,3.60
2023-05-09T11:40:42.073Z,5.63
2023-05-09T11:43:45.658Z,4.53
2023-05-09T11:46:50.957Z,4.55
2023-05-09T11:49:52.927Z,3.78
2023-05-09T11:52:55.164Z,3.58
2023-05-09T11:55:57.328Z,4.53
2023-05-09T11:59:00.828Z,3.88
2023-05-09T12:02:04.085Z,7.50
2023-05-09T12:05:11.376Z,12.18
2023-05-09T12:08:13.907Z,11.63
2023-05-09T12:11:15.896Z,8.85
2023-05-09T12:14:28.572Z,7.63
2023-05-09T12:17:30.570Z,7.38
2023-05-09T12:20:47.611Z,6.60
2023-05-09T12:23:51.809Z,7.82
2023-05-09T12:26:57.350Z,6.88
2023-05-09T12:30:01.917Z,8.90
2023-05-09T12:33:04.361Z,6.20
2023-05-09T12:36:08.980Z,7.07
2023-05-09T12:39:10.869Z,6.13
2023-05-09T12:42:13.714Z,7.22
2023-05-09T12:45:17.197Z,6.93
2023-05-09T12:48:23.033Z,5.13
2023-05-09T12:51:24.847Z,6.43
2023-05-09T12:54:30.032Z,5.63
2023-05-09T12:57:31.997Z,5.50
2023-05-09T13:00:43.532Z,5.60
2023-05-09T13:03:51.037Z,5.78
2023-05-09T13:06:55.704Z,5.55
2023-05-09T13:09:57.572Z,5.10
2023-05-09T13:12:59.475Z,7.30
2023-05-09T13:16:04.223Z,7.05
2023-05-09T13:19:06.563Z,7.32
2023-05-09T13:22:09.868Z,7.38
2023-05-09T13:25:16.822Z,7.75
2023-05-09T13:28:18.799Z,7.30
2023-05-09T13:31:22.816Z,6.32
2023-05-09T13:34:24.714Z,7.00
2023-05-09T13:37:29.069Z,7.75
2023-05-09T13:40:30.792Z,7.25
2023-05-09T13:43:32.713Z,5.20
2023-05-09T13:46:37.331Z,6.15
2023-05-09T13:49:39.433Z,5.28
2023-05-09T13:52:41.238Z,5.88
2023-05-09T13:55:43.366Z,4.65
2023-05-09T13:58:47.116Z,4.65
2023-05-09T14:01:50.370Z,5.25
2023-05-09T14:04:52.216Z,5.22
2023-05-09T14:07:54.701Z,4.45
2023-05-09T14:10:56.552Z,7.65
2023-05-09T14:13:58.353Z,6.70
2023-05-09T14:17:01.950Z,5.15
2023-05-09T14:20:04.387Z,5.35
2023-05-09T14:23:06.163Z,4.85
2023-05-09T14:26:08.619Z,7.82
2023-05-09T14:29:10.909Z,7.18
2023-05-09T14:32:14.545Z,5.30
2023-05-09T14:35:16.959Z,4.05
2023-05-09T14:38:19.168Z,5.07
2023-05-09T14:41:22.185Z,5.30
2023-05-09T14:44:25.134Z,4.95
2023-05-09T14:47:28.570Z,7.82
2023-05-09T14:50:30.989Z,4.25
2023-05-09T14:53:35.475Z,4.00
2023-05-09T14:56:37.444Z,4.32
2023-05-09T14:59:39.145Z,3.20
2023-05-09T15:02:42.576Z,5.10
2023-05-09T15:05:44.831Z,4.45
2023-05-09T15:08:46.880Z,5.15
2023-05-09T15:11:49.719Z,3.58
2023-05-09T15:14:53.836Z,4.07
2023-05-09T15:17:57.796Z,3.72
2023-05-09T15:20:59.736Z,3.85
2023-05-09T15:24:02.417Z,4.85
2023-05-09T15:27:04.486Z,4.30
2023-05-09T15:30:07.812Z,3.30
2023-05-09T15:33:11.384Z,3.75
2023-05-09T15:36:13.479Z,3.92
2023-05-09T15:39:15.461Z,3.22
2023-05-09T15:42:19.030Z,4.95
2023-05-09T15:45:20.953Z,3.38
2023-05-09T15:48:24.881Z,6.35
2023-05-09T15:51:29.425Z,4.43
2023-05-09T15:54:31.785Z,3.28
2023-05-09T15:57:34.013Z,4.05
2023-05-09T16:00:36.062Z,4.20
2023-05-09T16:03:39.664Z,4.10
2023-05-09T16:06:41.978Z,3.75
2023-05-09T16:09:44.658Z,4.95
2023-05-09T16:12:46.427Z,3.55
2023-05-09T16:15:49.921Z,4.07
2023-05-09T16:18:53.494Z,4.88
2023-05-09T16:21:55.226Z,3.30
2023-05-09T16:24:57.057Z,3.78
2023-05-09T16:27:59.023Z,3.15
2023-05-09T16:31:04.833Z,4.32
2023-05-09T16:34:08.220Z,3.85
2023-05-09T16:37:10.265Z,3.15
2023-05-09T16:40:13.578Z,3.50
2023-05-09T16:43:16.344Z,5.18
2023-05-09T16:46:18.292Z,6.70
2023-05-09T16:49:21.589Z,5.97
2023-05-09T16:52:24.038Z,3.25
2023-05-09T16:55:26.062Z,3.53
2023-05-09T16:58:28.051Z,3.25
2023-05-09T17:01:30.230Z,4.40
2023-05-09T17:04:35.309Z,3.17
2023-05-09T17:07:39.499Z,4.40
2023-05-09T17:10:42.170Z,3.65
2023-05-09T17:13:44.277Z,4.30
2023-05-09T17:16:46.139Z,3.65
2023-05-09T17:19:49.757Z,3.85
2023-05-09T17:22:51.663Z,4.95
2023-05-09T17:25:53.532Z,4.10
2023-05-09T17:28:56.637Z,4.65
2023-05-09T17:35:25.779Z,3.80
2023-05-09T17:38:27.517Z,5.47
2023-05-09T17:41:29.440Z,4.93
2023-05-09T17:44:31.356Z,5.30
2023-05-09T17:47:33.458Z,6.82
2023-05-09T17:50:39.088Z,5.13
2023-05-09T17:53:40.767Z,5.50
2023-05-09T17:56:44.294Z,5.85
2023-05-09T17:59:47.860Z,6.25
2023-05-09T18:02:51.039Z,6.18
2023-05-09T18:05:54.357Z,5.00
2023-05-09T18:08:56.162Z,6.85
2023-05-09T18:11:59.071Z,5.40
2023-05-09T18:15:00.945Z,7.38
2023-05-09T18:18:03.321Z,5.22
2023-05-09T18:21:07.985Z,5.45
2023-05-09T18:24:10.102Z,7.10
2023-05-09T18:27:11.946Z,9.75
2023-05-09T18:30:15.107Z,6.05
2023-05-09T18:33:17.042Z,5.90
2023-05-09T18:36:20.638Z,5.25
2023-05-09T18:39:22.494Z,4.63
2023-05-09T18:42:24.213Z,1.77
2023-05-09T18:45:25.983Z,2.72
2023-05-09T18:48:31.188Z,1.13
2023-05-09T18:51:35.801Z,1.35
2023-05-09T18:54:38.177Z,1.52
2023-05-09T18:57:40.601Z,2.35
2023-05-09T19:00:42.932Z,3.53
2023-05-09T19:03:54.020Z,1.80
2023-05-09T19:06:59.204Z,2.45
2023-05-09T19:10:01.662Z,1.20
2023-05-09T19:13:04.601Z,1.38
2023-05-09T19:16:07.676Z,1.38
2023-05-09T19:19:09.770Z,2.97
2023-05-09T19:22:13.491Z,1.73
2023-05-09T19:25:15.558Z,3.22
2023-05-09T19:28:18.898Z,1.50
2023-05-09T19:31:21.456Z,2.83
2023-05-09T19:34:24.358Z,2.65
2023-05-09T19:37:28.168Z,1.75
2023-05-09T19:40:30.380Z,1.88
2023-05-09T19:43:35.744Z,2.75
2023-05-09T19:46:42.720Z,3.65
2023-05-09T19:49:45.428Z,4.25
2023-05-09T19:52:51.764Z,2.92
2023-05-09T19:55:53.806Z,3.92
2023-05-09T19:58:55.595Z,2.75
2023-05-09T20:01:57.969Z,2.70
2023-05-09T20:05:00.464Z,5.53
2023-05-09T20:08:04.213Z,2.70
2023-05-09T20:11:06.616Z,3.30
2023-05-09T20:14:08.429Z,5.07
2023-05-09T20:17:10.813Z,2.30
2023-05-09T20:20:13.521Z,5.30
2023-05-09T20:23:17.398Z,2.42
2023-05-09T20:26:19.421Z,5.30
2023-05-09T20:29:21.418Z,4.53
2023-05-09T20:35:49.817Z,2.78
2023-05-09T20:38:53.460Z,2.85
2023-05-09T20:42:02.625Z,3.65
2023-05-09T20:45:05.465Z,3.92
2023-05-09T20:48:07.813Z,2.53
2023-05-09T20:51:09.930Z,2.17
2023-05-09T20:54:13.519Z,3.40
2023-05-09T20:57:15.696Z,2.67
2023-05-09T21:00:18.207Z,1.50
2023-05-09T21:03:20.244Z,1.52
2023-05-09T21:06:22.278Z,1.50
2023-05-09T21:09:28.685Z,4.03
2023-05-09T21:12:30.766Z,1.90
2023-05-09T21:15:32.806Z,2.03
2023-05-09T21:18:34.717Z,1.85
2023-05-09T21:21:36.660Z,2.20
2023-05-09T21:24:40.133Z,2.47
2023-05-09T21:27:42.021Z,2.35
2023-05-09T21:30:44.207Z,6.50
2023-05-09T21:33:46.029Z,1.70
2023-05-09T21:36:47.934Z,3.15
2023-05-09T21:39:51.090Z,2.35
2023-05-09T21:42:52.792Z,2.40
2023-05-09T21:45:55.144Z,1.75
2023-05-09T21:48:56.751Z,1.45
2023-05-09T21:51:58.840Z,1.98
2023-05-09T21:55:05.481Z,3.38
2023-05-09T21:58:07.412Z,1.35
2023-05-09T22:01:09.193Z,1.48
2023-05-09T22:04:11.746Z,2.15
2023-05-09T22:07:13.442Z,1.20
2023-05-09T22:10:17.293Z,2.45
2023-05-09T22:13:19.504Z,1.73
2023-05-09T22:16:22.461Z,1.02
2023-05-09T22:19:25.072Z,2.05
2023-05-09T22:22:29.788Z,2.08
2023-05-09T22:25:32.910Z,1.55
2023-05-09T22:28:34.666Z,1.60
2023-05-09T22:31:36.617Z,1.20
2023-05-09T22:34:38.562Z,1.73
2023-05-09T22:37:43.881Z,1.70
2023-05-09T22:40:47.589Z,2.47
2023-05-09T22:43:49.484Z,2.13
2023-05-09T22:46:51.425Z,1.35
2023-05-09T22:49:53.262Z,1.15
2023-05-09T22:52:55.069Z,1.25
2023-05-09T22:55:58.330Z,3.50
2023-05-09T22:59:02.653Z,1.10
2023-05-09T23:02:04.806Z,1.38
2023-05-09T23:05:08.752Z,0.98
2023-05-09T23:08:10.709Z,0.90
2023-05-09T23:11:13.989Z,2.28
2023-05-09T23:14:15.778Z,2.05
2023-05-09T23:17:17.650Z,0.68
2023-05-09T23:20:19.637Z,0.65
2023-05-09T23:23:21.691Z,0.57
2023-05-09T23:26:24.966Z,0.70
2023-05-09T23:29:26.754Z,0.28
2023-05-09T23:32:31.535Z,0.77
2023-05-09T23:35:33.340Z,0.22
2023-05-09T23:38:35.399Z,0.38
2023-05-09T23:41:38.890Z,0.40
2023-05-09T23:44:40.534Z,0.30
2023-05-09T23:47:42.279Z,1.60
2023-05-09T23:50:44.391Z,0.80
2023-05-09T23:53:46.108Z,0.30
2023-05-09T23:56:49.609Z,0.40
2023-05-09T23:59:51.538Z,2.05
